sensor_id;sensor_type;location;lat;lon;timestamp;pressure;altitude;pressure_sealevel;temperature;humidity
44309;BME280;30022;55.846;37.340;2023-02-13T00:01:37;46938.13;;;-143.51;100.00
44309;BME280;30022;55.846;37.340;2023-02-13T00:04:03;46944.06;;;-143.51;100.00
44309;BME280;30022;55.846;37.340;2023-02-13T00:06:29;46926.28;;;-143.51;100.00
44309;BME280;30022;55.846;37.340;2023-02-13T00:08:54;46965.78;;;-143.51;100.00
44309;BME280;30022;55.846;37.340;2023-02-13T00:11:20;46918.38;;;-143.51;100.00
44309;BME280;30022;55.846;37.340;2023-02-13T00:13:46;46961.84;;;-143.51;100.00
44309;BME280;30022;55.846;37.340;2023-02-13T00:16:11;46967.75;;;-143.51;100.00
44309;BME280;30022;55.846;37.340;2023-02-13T00:18:37;46940.09;;;-143.51;100.00
44309;BME280;30022;55.846;37.340;2023-02-13T00:21:05;46965.78;;;-143.51;100.00
44309;BME280;30022;55.846;37.340;2023-02-13T00:23:31;46948.00;;;-143.51;100.00
44309;BME280;30022;55.846;37.340;2023-02-13T00:25:57;46953.94;;;-143.51;100.00
44309;BME280;30022;55.846;37.340;2023-02-13T00:28:23;46928.25;;;-143.51;100.00
44309;BME280;30022;55.846;37.340;2023-02-13T00:30:49;46942.09;;;-143.51;100.00
44309;BME280;30022;55.846;37.340;2023-02-13T00:33:15;46910.47;;;-143.51;100.00
44309;BME280;30022;55.846;37.340;2023-02-13T00:35:41;46942.09;;;-143.51;100.00
44309;BME280;30022;55.846;37.340;2023-02-13T00:38:06;46951.97;;;-143.51;100.00
44309;BME280;30022;55.846;37.340;2023-02-13T00:40:32;46946.03;;;-143.51;100.00
44309;BME280;30022;55.846;37.340;2023-02-13T00:42:58;46942.09;;;-143.51;100.00
44309;BME280;30022;55.846;37.340;2023-02-13T00:45:24;46938.13;;;-143.51;100.00
44309;BME280;30022;55.846;37.340;2023-02-13T00:47:49;46944.06;;;-143.51;100.00
44309;BME280;30022;55.846;37.340;2023-02-13T00:50:15;46904.56;;;-143.51;100.00
44309;BME280;30022;55.846;37.340;2023-02-13T00:52:40;46948.00;;;-143.51;100.00
44309;BME280;30022;55.846;37.340;2023-02-13T00:55:06;46934.19;;;-143.51;100.00
44309;BME280;30022;55.846;37.340;2023-02-13T00:57:32;46934.19;;;-143.51;100.00
44309;BME280;30022;55.846;37.340;2023-02-13T00:59:57;46959.84;;;-143.51;100.00
44309;BME280;30022;55.846;37.340;2023-02-13T01:02:23;46922.34;;;-143.51;100.00
44309;BME280;30022;55.846;37.340;2023-02-13T01:04:49;46938.13;;;-143.51;100.00
44309;BME280;30022;55.846;37.340;2023-02-13T01:07:14;46969.72;;;-143.51;100.00
44309;BME280;30022;55.846;37.340;2023-02-13T01:09:42;46930.22;;;-143.51;100.00
44309;BME280;30022;55.846;37.340;2023-02-13T01:12:08;46922.34;;;-143.51;100.00
44309;BME280;30022;55.846;37.340;2023-02-13T01:14:33;46920.34;;;-143.51;100.00
44309;BME280;30022;55.846;37.340;2023-02-13T01:16:59;46918.38;;;-143.51;100.00
44309;BME280;30022;55.846;37.340;2023-02-13T01:19:25;46924.31;;;-143.51;100.00
44309;BME280;30022;55.846;37.340;2023-02-13T01:21:51;46930.22;;;-143.51;100.00
44309;BME280;30022;55.846;37.340;2023-02-13T01:24:17;46918.38;;;-143.51;100.00
44309;BME280;30022;55.846;37.340;2023-02-13T01:26:43;46920.34;;;-143.51;100.00
44309;BME280;30022;55.846;37.340;2023-02-13T01:29:11;46928.25;;;-143.51;100.00
44309;BME280;30022;55.846;37.340;2023-02-13T01:31:36;46953.94;;;-143.51;100.00
44309;BME280;30022;55.846;37.340;2023-02-13T01:34:02;46944.06;;;-143.51;100.00
44309;BME280;30022;55.846;37.340;2023-02-13T01:36:27;46944.06;;;-143.51;100.00
44309;BME280;30022;55.846;37.340;2023-02-13T01:38:54;46963.81;;;-143.51;100.00
44309;BME280;30022;55.846;37.340;2023-02-13T01:41:20;46953.94;;;-143.51;100.00
44309;BME280;30022;55.846;37.340;2023-02-13T01:46:12;46942.09;;;-143.51;100.00
44309;BME280;30022;55.846;37.340;2023-02-13T01:48:38;46904.56;;;-143.51;100.00
44309;BME280;30022;55.846;37.340;2023-02-13T01:51:06;46946.03;;;-143.51;100.00
44309;BME280;30022;55.846;37.340;2023-02-13T01:53:37;46946.03;;;-143.51;100.00
44309;BME280;30022;55.846;37.340;2023-02-13T01:58:38;46934.19;;;-143.51;100.00
44309;BME280;30022;55.846;37.340;2023-02-13T02:01:05;46940.09;;;-143.51;100.00
44309;BME280;30022;55.846;37.340;2023-02-13T02:03:42;46924.31;;;-143.51;100.00
44309;BME280;30022;55.846;37.340;2023-02-13T02:06:11;46938.13;;;-143.51;100.00
44309;BME280;30022;55.846;37.340;2023-02-13T02:08:38;46930.22;;;-143.51;100.00
44309;BME280;30022;55.846;37.340;2023-02-13T02:11:06;46955.91;;;-143.51;100.00
44309;BME280;30022;55.846;37.340;2023-02-13T02:13:35;46949.97;;;-143.51;100.00
44309;BME280;30022;55.846;37.340;2023-02-13T02:16:05;46926.28;;;-143.51;100.00
44309;BME280;30022;55.846;37.340;2023-02-13T02:18:31;46967.75;;;-143.51;100.00
44309;BME280;30022;55.846;37.340;2023-02-13T02:36:55;46949.97;;;-143.51;100.00
44309;BME280;30022;55.846;37.340;2023-02-13T02:42:17;46946.03;;;-143.51;100.00
44309;BME280;30022;55.846;37.340;2023-02-13T02:44:53;46965.78;;;-143.51;100.00
44309;BME280;30022;55.846;37.340;2023-02-13T02:50:33;46932.22;;;-143.51;100.00
44309;BME280;30022;55.846;37.340;2023-02-13T02:55:36;46969.72;;;-143.51;100.00
44309;BME280;30022;55.846;37.340;2023-02-13T02:58:12;46977.63;;;-143.51;100.00
44309;BME280;30022;55.846;37.340;2023-02-13T03:00:59;46946.03;;;-143.51;100.00
44309;BME280;30022;55.846;37.340;2023-02-13T03:03:45;46969.72;;;-143.51;100.00
44309;BME280;30022;55.846;37.340;2023-02-13T03:06:35;46987.50;;;-143.51;100.00
44309;BME280;30022;55.846;37.340;2023-02-13T03:09:04;46981.59;;;-143.51;100.00
44309;BME280;30022;55.846;37.340;2023-02-13T03:11:50;46983.56;;;-143.51;100.00
44309;BME280;30022;55.846;37.340;2023-02-13T03:14:34;46963.81;;;-143.51;100.00
44309;BME280;30022;55.846;37.340;2023-02-13T03:17:00;46997.38;;;-143.51;100.00
44309;BME280;30022;55.846;37.340;2023-02-13T03:22:33;47005.28;;;-143.51;100.00
44309;BME280;30022;55.846;37.340;2023-02-13T03:25:20;47013.19;;;-143.51;100.00
44309;BME280;30022;55.846;37.340;2023-02-13T03:27:56;47032.94;;;-143.51;100.00
44309;BME280;30022;55.846;37.340;2023-02-13T03:36:12;47036.88;;;-143.51;100.00
44309;BME280;30022;55.846;37.340;2023-02-13T03:39:00;47028.97;;;-143.51;100.00
44309;BME280;30022;55.846;37.340;2023-02-13T03:41:38;47019.09;;;-143.51;100.00
44309;BME280;30022;55.846;37.340;2023-02-13T03:46:33;47017.13;;;-143.51;100.00
44309;BME280;30022;55.846;37.340;2023-02-13T03:49:01;47025.03;;;-143.51;100.00
44309;BME280;30022;55.846;37.340;2023-02-13T03:51:48;47028.97;;;-143.51;100.00
44309;BME280;30022;55.846;37.340;2023-02-13T03:54:26;47066.50;;;-143.51;100.00
44309;BME280;30022;55.846;37.340;2023-02-13T03:57:12;47019.09;;;-143.51;100.00
44309;BME280;30022;55.846;37.340;2023-02-13T03:59:57;47068.47;;;-143.51;100.00
44309;BME280;30022;55.846;37.340;2023-02-13T04:02:27;47068.47;;;-143.51;100.00
44309;BME280;30022;55.846;37.340;2023-02-13T04:04:59;47032.94;;;-143.51;100.00
44309;BME280;30022;55.846;37.340;2023-02-13T04:07:28;47058.59;;;-143.51;100.00
44309;BME280;30022;55.846;37.340;2023-02-13T04:09:55;47064.53;;;-143.51;100.00
44309;BME280;30022;55.846;37.340;2023-02-13T04:12:25;47104.03;;;-143.51;100.00
44309;BME280;30022;55.846;37.340;2023-02-13T04:14:58;47080.34;;;-143.51;100.00
44309;BME280;30022;55.846;37.340;2023-02-13T04:17:31;47064.53;;;-143.51;100.00
44309;BME280;30022;55.846;37.340;2023-02-13T04:19:58;47088.22;;;-143.51;100.00
44309;BME280;30022;55.846;37.340;2023-02-13T04:22:24;47100.09;;;-143.51;100.00
44309;BME280;30022;55.846;37.340;2023-02-13T04:24:50;47098.09;;;-143.51;100.00
44309;BME280;30022;55.846;37.340;2023-02-13T04:27:16;47094.16;;;-143.51;100.00
44309;BME280;30022;55.846;37.340;2023-02-13T04:29:42;47129.72;;;-143.51;100.00
44309;BME280;30022;55.846;37.340;2023-02-13T04:32:10;47129.72;;;-143.51;100.00
44309;BME280;30022;55.846;37.340;2023-02-13T04:34:36;47104.03;;;-143.51;100.00
44309;BME280;30022;55.846;37.340;2023-02-13T04:37:02;47096.13;;;-143.51;100.00
44309;BME280;30022;55.846;37.340;2023-02-13T04:39:27;47096.13;;;-143.51;100.00
44309;BME280;30022;55.846;37.340;2023-02-13T04:41:53;47113.91;;;-143.51;100.00
44309;BME280;30022;55.846;37.340;2023-02-13T04:44:18;47133.66;;;-143.51;100.00
44309;BME280;30022;55.846;37.340;2023-02-13T04:46:44;47125.75;;;-143.51;100.00
44309;BME280;30022;55.846;37.340;2023-02-13T04:49:10;47123.78;;;-143.51;100.00
44309;BME280;30022;55.846;37.340;2023-02-13T04:51:35;47147.47;;;-143.51;100.00
44309;BME280;30022;55.846;37.340;2023-02-13T04:54:01;47147.47;;;-143.51;100.00
44309;BME280;30022;55.846;37.340;2023-02-13T04:56:26;47141.56;;;-143.51;100.00
44309;BME280;30022;55.846;37.340;2023-02-13T04:58:53;47129.72;;;-143.51;100.00
44309;BME280;30022;55.846;37.340;2023-02-13T05:01:19;47121.81;;;-143.51;100.00
44309;BME280;30022;55.846;37.340;2023-02-13T05:03:44;47131.69;;;-143.51;100.00
44309;BME280;30022;55.846;37.340;2023-02-13T05:06:10;47135.63;;;-143.51;100.00
44309;BME280;30022;55.846;37.340;2023-02-13T05:08:36;47111.94;;;-143.51;100.00
44309;BME280;30022;55.846;37.340;2023-02-13T05:11:01;47117.84;;;-143.51;100.00
44309;BME280;30022;55.846;37.340;2023-02-13T05:13:28;47109.97;;;-143.51;100.00
44309;BME280;30022;55.846;37.340;2023-02-13T05:15:54;47163.28;;;-143.51;100.00
44309;BME280;30022;55.846;37.340;2023-02-13T05:18:19;47163.28;;;-143.51;100.00
44309;BME280;30022;55.846;37.340;2023-02-13T05:20:45;47163.28;;;-143.51;100.00
44309;BME280;30022;55.846;37.340;2023-02-13T05:23:30;47163.28;;;-143.51;100.00
44309;BME280;30022;55.846;37.340;2023-02-13T05:25:56;47139.59;;;-143.51;100.00
44309;BME280;30022;55.846;37.340;2023-02-13T05:28:22;47163.28;;;-143.51;100.00
44309;BME280;30022;55.846;37.340;2023-02-13T05:31:05;47179.09;;;-143.51;100.00
44309;BME280;30022;55.846;37.340;2023-02-13T05:33:31;47190.94;;;-143.51;100.00
44309;BME280;30022;55.846;37.340;2023-02-13T05:35:56;47161.31;;;-143.51;100.00
44309;BME280;30022;55.846;37.340;2023-02-13T05:38:22;47163.28;;;-143.51;100.00
44309;BME280;30022;55.846;37.340;2023-02-13T05:40:47;47194.88;;;-143.51;100.00
44309;BME280;30022;55.846;37.340;2023-02-13T05:43:13;47192.91;;;-143.51;100.00
44309;BME280;30022;55.846;37.340;2023-02-13T05:45:39;47149.47;;;-143.51;100.00
44309;BME280;30022;55.846;37.340;2023-02-13T05:48:04;47149.47;;;-143.51;100.00
44309;BME280;30022;55.846;37.340;2023-02-13T05:50:30;47167.25;;;-143.51;100.00
44309;BME280;30022;55.846;37.340;2023-02-13T05:52:55;47196.88;;;-143.51;100.00
44309;BME280;30022;55.846;37.340;2023-02-13T05:55:21;47194.88;;;-143.51;100.00
44309;BME280;30022;55.846;37.340;2023-02-13T05:57:46;47210.69;;;-143.51;100.00
44309;BME280;30022;55.846;37.340;2023-02-13T06:00:12;47212.66;;;-143.51;100.00
44309;BME280;30022;55.846;37.340;2023-02-13T06:02:38;47212.66;;;-143.51;100.00
44309;BME280;30022;55.846;37.340;2023-02-13T06:05:03;47212.66;;;-143.51;100.00
44309;BME280;30022;55.846;37.340;2023-02-13T06:07:29;47206.75;;;-143.51;100.00
44309;BME280;30022;55.846;37.340;2023-02-13T06:09:55;47188.97;;;-143.51;100.00
44309;BME280;30022;55.846;37.340;2023-02-13T06:12:23;47171.19;;;-143.51;100.00
44309;BME280;30022;55.846;37.340;2023-02-13T06:14:49;47171.19;;;-143.51;100.00
44309;BME280;30022;55.846;37.340;2023-02-13T06:17:15;47196.88;;;-143.51;100.00
44309;BME280;30022;55.846;37.340;2023-02-13T06:19:40;47204.75;;;-143.51;100.00
44309;BME280;30022;55.846;37.340;2023-02-13T06:22:06;47183.03;;;-143.51;100.00
44309;BME280;30022;55.846;37.340;2023-02-13T06:24:32;47175.13;;;-143.51;100.00
44309;BME280;30022;55.846;37.340;2023-02-13T06:26:57;47179.09;;;-143.51;100.00
44309;BME280;30022;55.846;37.340;2023-02-13T06:29:23;47187.00;;;-143.51;100.00
44309;BME280;30022;55.846;37.340;2023-02-13T06:31:48;47196.88;;;-143.51;100.00
44309;BME280;30022;55.846;37.340;2023-02-13T06:34:14;47192.91;;;-143.51;100.00
44309;BME280;30022;55.846;37.340;2023-02-13T06:36:39;47220.56;;;-143.51;100.00
44309;BME280;30022;55.846;37.340;2023-02-13T06:39:08;47242.28;;;-143.51;100.00
44309;BME280;30022;55.846;37.340;2023-02-13T06:41:34;47216.63;;;-143.51;100.00
44309;BME280;30022;55.846;37.340;2023-02-13T06:43:59;47228.47;;;-143.51;100.00
44309;BME280;30022;55.846;37.340;2023-02-13T06:46:25;47192.91;;;-143.51;100.00
44309;BME280;30022;55.846;37.340;2023-02-13T06:48:50;47188.97;;;-143.51;100.00
44309;BME280;30022;55.846;37.340;2023-02-13T06:51:16;47212.66;;;-143.51;100.00
44309;BME280;30022;55.846;37.340;2023-02-13T06:53:43;47238.34;;;-143.51;100.00
44309;BME280;30022;55.846;37.340;2023-02-13T06:56:09;47238.34;;;-143.51;100.00
44309;BME280;30022;55.846;37.340;2023-02-13T06:58:35;47228.47;;;-143.51;100.00
44309;BME280;30022;55.846;37.340;2023-02-13T07:01:01;47252.16;;;-143.51;100.00
44309;BME280;30022;55.846;37.340;2023-02-13T07:03:26;47222.53;;;-143.51;100.00
44309;BME280;30022;55.846;37.340;2023-02-13T07:05:52;47232.41;;;-143.51;100.00
44309;BME280;30022;55.846;37.340;2023-02-13T07:08:18;47246.25;;;-143.51;100.00
44309;BME280;30022;55.846;37.340;2023-02-13T07:10:44;47218.59;;;-143.51;100.00
44309;BME280;30022;55.846;37.340;2023-02-13T07:13:09;47258.09;;;-143.51;100.00
44309;BME280;30022;55.846;37.340;2023-02-13T07:15:35;47269.94;;;-143.51;100.00
44309;BME280;30022;55.846;37.340;2023-02-13T07:18:01;47266.00;;;-143.51;100.00
44309;BME280;30022;55.846;37.340;2023-02-13T07:20:27;47234.38;;;-143.51;100.00
44309;BME280;30022;55.846;37.340;2023-02-13T07:22:56;47254.16;;;-143.51;100.00
44309;BME280;30022;55.846;37.340;2023-02-13T07:25:21;47262.03;;;-143.51;100.00
44309;BME280;30022;55.846;37.340;2023-02-13T07:27:47;47258.09;;;-143.51;100.00
44309;BME280;30022;55.846;37.340;2023-02-13T07:30:12;47236.38;;;-143.51;100.00
44309;BME280;30022;55.846;37.340;2023-02-13T07:32:38;47273.91;;;-143.51;100.00
44309;BME280;30022;55.846;37.340;2023-02-13T07:35:04;47238.34;;;-143.51;100.00
44309;BME280;30022;55.846;37.340;2023-02-13T07:37:30;47224.50;;;-143.51;100.00
44309;BME280;30022;55.846;37.340;2023-02-13T07:39:56;47293.66;;;-143.51;100.00
44309;BME280;30022;55.846;37.340;2023-02-13T07:42:21;47279.81;;;-143.51;100.00
44309;BME280;30022;55.846;37.340;2023-02-13T07:44:47;47277.84;;;-143.51;100.00
44309;BME280;30022;55.846;37.340;2023-02-13T07:47:12;47341.06;;;-143.51;100.00
44309;BME280;30022;55.846;37.340;2023-02-13T07:49:38;47325.25;;;-143.51;100.00
44309;BME280;30022;55.846;37.340;2023-02-13T07:52:04;47327.22;;;-143.51;100.00
44309;BME280;30022;55.846;37.340;2023-02-13T07:54:30;47323.28;;;-143.51;100.00
44309;BME280;30022;55.846;37.340;2023-02-13T07:56:56;47303.53;;;-143.51;100.00
44309;BME280;30022;55.846;37.340;2023-02-13T07:59:22;47372.66;;;-143.51;100.00
44309;BME280;30022;55.846;37.340;2023-02-13T08:01:47;47337.09;;;-143.51;100.00
44309;BME280;30022;55.846;37.340;2023-02-13T08:04:13;47380.56;;;-143.51;100.00
44309;BME280;30022;55.846;37.340;2023-02-13T08:06:39;47352.91;;;-143.51;100.00
44309;BME280;30022;55.846;37.340;2023-02-13T08:09:04;47356.84;;;-143.51;100.00
44309;BME280;30022;55.846;37.340;2023-02-13T08:11:48;47467.47;;;-143.51;100.00
44309;BME280;30022;55.846;37.340;2023-02-13T08:14:20;47505.00;;;-143.51;100.00
44309;BME280;30022;55.846;37.340;2023-02-13T08:16:46;47512.91;;;-143.51;100.00
44309;BME280;30022;55.846;37.340;2023-02-13T08:19:11;47465.50;;;-143.51;100.00
44309;BME280;30022;55.846;37.340;2023-02-13T08:21:37;47487.22;;;-143.51;100.00
44309;BME280;30022;55.846;37.340;2023-02-13T08:24:05;47433.88;;;-143.51;100.00
44309;BME280;30022;55.846;37.340;2023-02-13T08:26:31;47392.41;;;-143.51;100.00
44309;BME280;30022;55.846;37.340;2023-02-13T08:28:56;47420.06;;;-143.51;100.00
44309;BME280;30022;55.846;37.340;2023-02-13T08:31:22;47429.94;;;-143.51;100.00
44309;BME280;30022;55.846;37.340;2023-02-13T08:33:48;47410.19;;;-143.51;100.00
44309;BME280;30022;55.846;37.340;2023-02-13T08:36:14;47429.94;;;-143.51;100.00
44309;BME280;30022;55.846;37.340;2023-02-13T08:38:40;47445.75;;;-143.51;100.00
44309;BME280;30022;55.846;37.340;2023-02-13T08:41:05;47453.63;;;-143.51;100.00
44309;BME280;30022;55.846;37.340;2023-02-13T08:43:31;47453.63;;;-143.51;100.00
44309;BME280;30022;55.846;37.340;2023-02-13T08:45:57;47501.03;;;-143.51;100.00
44309;BME280;30022;55.846;37.340;2023-02-13T08:48:24;47493.16;;;-143.51;100.00
44309;BME280;30022;55.846;37.340;2023-02-13T08:50:49;47574.13;;;-143.51;100.00
44309;BME280;30022;55.846;37.340;2023-02-13T08:53:15;47520.78;;;-143.51;100.00
44309;BME280;30022;55.846;37.340;2023-02-13T08:55:40;47526.72;;;-143.51;100.00
44309;BME280;30022;55.846;37.340;2023-02-13T08:58:06;47558.31;;;-143.51;100.00
44309;BME280;30022;55.846;37.340;2023-02-13T09:00:32;47584.00;;;-143.51;100.00
44309;BME280;30022;55.846;37.340;2023-02-13T09:03:01;47562.28;;;-143.51;100.00
44309;BME280;30022;55.846;37.340;2023-02-13T09:05:27;47566.22;;;-143.51;100.00
44309;BME280;30022;55.846;37.340;2023-02-13T09:07:53;47623.50;;;-143.51;100.00
44309;BME280;30022;55.846;37.340;2023-02-13T09:10:19;47627.47;;;-143.51;100.00
44309;BME280;30022;55.846;37.340;2023-02-13T09:12:52;47601.78;;;-143.51;100.00
44309;BME280;30022;55.846;37.340;2023-02-13T09:15:18;47661.03;;;-143.51;100.00
44309;BME280;30022;55.846;37.340;2023-02-13T09:17:43;47661.03;;;-143.51;100.00
44309;BME280;30022;55.846;37.340;2023-02-13T09:20:09;47732.16;;;-143.51;100.00
44309;BME280;30022;55.846;37.340;2023-02-13T09:22:36;47728.22;;;-143.51;100.00
44309;BME280;30022;55.846;37.340;2023-02-13T09:25:02;47686.72;;;-143.51;100.00
44309;BME280;30022;55.846;37.340;2023-02-13T09:30:40;47759.81;;;-143.51;100.00
44309;BME280;30022;55.846;37.340;2023-02-13T09:33:15;47716.34;;;-143.51;100.00
44309;BME280;30022;55.846;37.340;2023-02-13T09:35:44;47757.84;;;-143.51;100.00
44309;BME280;30022;55.846;37.340;2023-02-13T09:38:12;47866.50;;;-143.51;100.00
44309;BME280;30022;55.846;37.340;2023-02-13T09:40:59;47929.69;;;-143.51;100.00
44309;BME280;30022;55.846;37.340;2023-02-13T09:43:31;47931.69;;;-143.51;100.00
44309;BME280;30022;55.846;37.340;2023-02-13T09:46:18;47929.69;;;-143.51;100.00
44309;BME280;30022;55.846;37.340;2023-02-13T09:48:52;47913.91;;;-143.51;100.00
44309;BME280;30022;55.846;37.340;2023-02-13T09:51:21;47874.38;;;-143.51;100.00
44309;BME280;30022;55.846;37.340;2023-02-13T09:53:52;47834.88;;;-143.51;100.00
44309;BME280;30022;55.846;37.340;2023-02-13T09:56:34;47795.38;;;-143.51;100.00
44309;BME280;30022;55.846;37.340;2023-02-13T09:59:05;47858.59;;;-143.51;100.00
44309;BME280;30022;55.846;37.340;2023-02-13T10:01:38;47826.97;;;-143.51;100.00
44309;BME280;30022;55.846;37.340;2023-02-13T10:06:41;47992.91;;;-143.51;100.00
44309;BME280;30022;55.846;37.340;2023-02-13T10:16:54;47890.19;;;-143.51;100.00
44309;BME280;30022;55.846;37.340;2023-02-13T10:24:40;48060.09;;;-143.51;100.00
44309;BME280;30022;55.846;37.340;2023-02-13T10:27:14;48000.81;;;-143.51;100.00
44309;BME280;30022;55.846;37.340;2023-02-13T10:29:43;48117.38;;;-143.51;100.00
44309;BME280;30022;55.846;37.340;2023-02-13T10:32:53;48099.59;;;-143.51;100.00
44309;BME280;30022;55.846;37.340;2023-02-13T10:35:36;48312.97;;;-143.51;100.00
44309;BME280;30022;55.846;37.340;2023-02-13T10:38:03;48237.91;;;-143.51;100.00
44309;BME280;30022;55.846;37.340;2023-02-13T10:40:37;48182.56;;;-143.51;100.00
44309;BME280;30022;55.846;37.340;2023-02-13T10:48:05;48299.13;;;-143.51;100.00
44309;BME280;30022;55.846;37.340;2023-02-13T10:53:13;48567.84;;;-143.51;100.00
44309;BME280;30022;55.846;37.340;2023-02-13T11:03:28;49334.53;;;-143.51;100.00
44309;BME280;30022;55.846;37.340;2023-02-13T11:05:54;49542.03;;;-143.51;100.00
44309;BME280;30022;55.846;37.340;2023-02-13T11:08:25;49696.19;;;-143.51;100.00
44309;BME280;30022;55.846;37.340;2023-02-13T11:10:52;49779.19;;;-143.51;100.00
44309;BME280;30022;55.846;37.340;2023-02-13T11:13:19;49700.16;;;-143.51;100.00
44309;BME280;30022;55.846;37.340;2023-02-13T11:15:55;50261.47;;;-143.51;100.00
44309;BME280;30022;55.846;37.340;2023-02-13T11:18:21;50067.75;;;-143.51;100.00
44309;BME280;30022;55.846;37.340;2023-02-13T11:20:48;50138.91;;;-143.51;100.00
44309;BME280;30022;55.846;37.340;2023-02-13T11:28:20;50265.44;;;-143.51;100.00
44309;BME280;30022;55.846;37.340;2023-02-13T11:30:45;50059.84;;;-143.51;100.00
44309;BME280;30022;55.846;37.340;2023-02-13T11:35:42;50123.13;;;-143.51;100.00
44309;BME280;30022;55.846;37.340;2023-02-13T11:40:40;50573.81;;;-143.51;100.00
44309;BME280;30022;55.846;37.340;2023-02-13T11:43:13;50352.41;;;-143.51;100.00
44309;BME280;30022;55.846;37.340;2023-02-13T11:45:42;50795.22;;;-143.51;100.00
44309;BME280;30022;55.846;37.340;2023-02-13T11:48:08;50550.06;;;-143.51;100.00
44309;BME280;30022;55.846;37.340;2023-02-13T11:50:34;50405.78;;;-143.51;100.00
44309;BME280;30022;55.846;37.340;2023-02-13T11:53:15;50866.38;;;-143.51;100.00
44309;BME280;30022;55.846;37.340;2023-02-13T11:55:42;50042.06;;;-143.51;100.00
44309;BME280;30022;55.846;37.340;2023-02-13T12:00:35;50643.00;;;-143.51;100.00
44309;BME280;30022;55.846;37.340;2023-02-13T12:06:30;50172.53;;;-143.51;100.00
44309;BME280;30022;55.846;37.340;2023-02-13T12:08:32;49528.19;;;-143.51;100.00
44309;BME280;30022;55.846;37.340;2023-02-13T12:10:57;49283.16;;;-143.51;100.00
44309;BME280;30022;55.846;37.340;2023-02-13T12:13:26;49383.94;;;-143.51;100.00
44309;BME280;30022;55.846;37.340;2023-02-13T12:15:59;50125.09;;;-143.51;100.00
44309;BME280;30022;55.846;37.340;2023-02-13T12:18:30;49787.09;;;-143.51;100.00
44309;BME280;30022;55.846;37.340;2023-02-13T12:36:20;49459.03;;;-143.51;100.00
44309;BME280;30022;55.846;37.340;2023-02-13T12:41:37;49152.72;;;-143.51;100.00
44309;BME280;30022;55.846;37.340;2023-02-13T12:44:12;49646.78;;;-143.51;100.00
44309;BME280;30022;55.846;37.340;2023-02-13T13:02:44;48982.78;;;-143.51;100.00
44309;BME280;30022;55.846;37.340;2023-02-13T13:10:34;49298.97;;;-143.51;100.00
44309;BME280;30022;55.846;37.340;2023-02-13T13:13:07;49004.53;;;-143.51;100.00
44309;BME280;30022;55.846;37.340;2023-02-13T13:23:26;49338.47;;;-143.51;100.00
44309;BME280;30022;55.846;37.340;2023-02-13T13:28:26;49589.47;;;-143.51;100.00
44309;BME280;30022;55.846;37.340;2023-02-13T13:30:53;49868.13;;;-143.51;100.00
44309;BME280;30022;55.846;37.340;2023-02-13T13:33:21;50164.63;;;-143.51;100.00
44309;BME280;30022;55.846;37.340;2023-02-13T13:40:55;49929.41;;;-143.51;100.00
44309;BME280;30022;55.846;37.340;2023-02-13T13:43:36;49911.63;;;-143.51;100.00
44309;BME280;30022;55.846;37.340;2023-02-13T13:46:16;49988.72;;;-143.51;100.00
44309;BME280;30022;55.846;37.340;2023-02-13T13:51:12;49660.63;;;-143.51;100.00
44309;BME280;30022;55.846;37.340;2023-02-13T13:54:31;49795.00;;;-143.51;100.00
44309;BME280;30022;55.846;37.340;2023-02-13T13:59:16;49872.09;;;-143.51;100.00
44309;BME280;30022;55.846;37.340;2023-02-13T14:01:42;49941.28;;;-143.51;100.00
44309;BME280;30022;55.846;37.340;2023-02-13T14:11:54;49433.34;;;-143.51;100.00
44309;BME280;30022;55.846;37.340;2023-02-13T14:16:52;49850.34;;;-143.51;100.00
44309;BME280;30022;55.846;37.340;2023-02-13T14:21:49;50263.44;;;-143.51;100.00
44309;BME280;30022;55.846;37.340;2023-02-13T14:24:15;50146.84;;;-143.51;100.00
44309;BME280;30022;55.846;37.340;2023-02-13T14:26:48;49868.13;;;-143.51;100.00
44309;BME280;30022;55.846;37.340;2023-02-13T14:29:18;49569.69;;;-143.51;100.00
44309;BME280;30022;55.846;37.340;2023-02-13T14:31:53;49769.31;;;-143.51;100.00
44309;BME280;30022;55.846;37.340;2023-02-13T14:34:23;49753.50;;;-143.51;100.00
44309;BME280;30022;55.846;37.340;2023-02-13T14:37:14;50206.13;;;-143.51;100.00
44309;BME280;30022;55.846;37.340;2023-02-13T14:42:29;50148.81;;;-143.51;100.00
44309;BME280;30022;55.846;37.340;2023-02-13T14:44:55;50160.66;;;-143.51;100.00
44309;BME280;30022;55.846;37.340;2023-02-13T14:47:29;49986.72;;;-143.51;100.00
44309;BME280;30022;55.846;37.340;2023-02-13T14:49:57;50097.41;;;-143.51;100.00
44309;BME280;30022;55.846;37.340;2023-02-13T14:52:24;50154.72;;;-143.51;100.00
44309;BME280;30022;55.846;37.340;2023-02-13T14:54:53;50198.22;;;-143.51;100.00
44309;BME280;30022;55.846;37.340;2023-02-13T14:57:25;50445.31;;;-143.51;100.00
44309;BME280;30022;55.846;37.340;2023-02-13T14:59:54;50654.84;;;-143.51;100.00
44309;BME280;30022;55.846;37.340;2023-02-13T15:02:32;50198.22;;;-143.51;100.00
44309;BME280;30022;55.846;37.340;2023-02-13T15:05:18;50212.06;;;-143.51;100.00
44309;BME280;30022;55.846;37.340;2023-02-13T15:07:51;49522.28;;;-143.51;100.00
44309;BME280;30022;55.846;37.340;2023-02-13T15:12:57;49876.03;;;-143.51;100.00
44309;BME280;30022;55.846;37.340;2023-02-13T15:15:25;49599.34;;;-143.51;100.00
44309;BME280;30022;55.846;37.340;2023-02-13T15:17:56;49885.94;;;-143.51;100.00